Time;durP1;ratioP1;P1;durP2;ratioP2;P2;SDS_P1;SDS_P2;PMS_P1;PMS_P2;Temp;Humidity;BMP_temperature;BMP_pressure;BME280_temperature;BME280_humidity;BME280_pressure;Samples;Min_cycle;Max_cycle;Signal;HPM_P1;HPM_P2
2022/09/11 00:01:24;;;;;;;9.20;5.40;;;15.00;99.90;;;;;;4996184;28;20058;-43
2022/09/11 00:03:50;;;;;;;9.93;5.05;;;15.00;99.90;;;;;;4992011;28;20031;-46
2022/09/11 00:06:19;;;;;;;10.20;4.97;;;15.00;99.90;;;;;;5001532;28;20022;-53
2022/09/11 00:08:47;;;;;;;9.05;4.72;;;15.00;99.90;;;;;;5004706;28;20063;-45
2022/09/11 00:11:16;;;;;;;8.25;4.22;;;14.90;99.90;;;;;;5002995;28;20486;-50
2022/09/11 00:13:43;;;;;;;8.35;4.63;;;14.90;99.90;;;;;;4996666;28;20362;-44
2022/09/11 00:16:20;;;;;;;8.40;4.55;;;14.90;99.90;;;;;;4995672;28;20030;-48
2022/09/11 00:18:46;;;;;;;7.78;4.30;;;14.80;99.90;;;;;;4994108;28;20096;-55
2022/09/11 00:21:11;;;;;;;8.65;5.03;;;14.70;99.90;;;;;;5005188;28;20022;-53
2022/09/11 00:23:37;;;;;;;13.23;4.93;;;14.60;99.90;;;;;;5001815;28;20076;-49
2022/09/11 00:26:03;;;;;;;7.53;4.80;;;14.50;99.90;;;;;;4996949;28;20109;-49
2022/09/11 00:28:30;;;;;;;8.95;4.85;;;14.50;99.90;;;;;;4975543;28;20023;-44
2022/09/11 00:31:11;;;;;;;7.95;4.40;;;14.50;99.90;;;;;;4982859;28;20030;-44
2022/09/11 00:33:37;;;;;;;6.50;4.72;;;14.50;99.90;;;;;;4991629;28;20062;-44
2022/09/11 00:36:06;;;;;;;11.98;5.07;;;14.50;99.90;;;;;;5000515;28;20033;-48
2022/09/11 00:38:35;;;;;;;6.15;4.50;;;14.50;99.90;;;;;;4999588;28;20486;-46
2022/09/11 00:41:03;;;;;;;9.33;5.63;;;14.50;99.90;;;;;;4996378;28;20041;-45
2022/09/11 00:43:48;;;;;;;12.30;5.68;;;14.50;99.90;;;;;;4995071;28;20022;-48
2022/09/11 00:46:15;;;;;;;9.90;4.60;;;14.40;99.90;;;;;;4992540;28;20063;-52
2022/09/11 00:48:42;;;;;;;6.88;3.92;;;14.40;99.90;;;;;;5004270;28;20027;-45
2022/09/11 00:51:09;;;;;;;7.57;4.20;;;14.40;99.90;;;;;;4999815;28;20080;-49
2022/09/11 00:53:36;;;;;;;9.25;4.55;;;14.40;99.90;;;;;;4999653;28;20374;-51
2022/09/11 00:56:06;;;;;;;7.75;4.78;;;14.30;99.90;;;;;;4993376;28;20090;-45
2022/09/11 00:58:36;;;;;;;7.57;4.80;;;14.10;99.90;;;;;;4998339;28;20541;-48
2022/09/11 01:01:02;;;;;;;7.40;5.22;;;14.00;99.90;;;;;;5003807;28;20037;-51
2022/09/11 01:03:30;;;;;;;10.02;5.57;;;13.90;99.90;;;;;;4994257;28;20018;-45
2022/09/11 01:05:57;;;;;;;11.55;5.78;;;13.90;99.90;;;;;;4997031;28;20030;-44
2022/09/11 01:08:23;;;;;;;9.25;6.25;;;13.90;99.90;;;;;;4992504;28;20041;-48
2022/09/11 01:11:03;;;;;;;9.30;6.38;;;13.90;99.90;;;;;;4994719;28;21231;-44
2022/09/11 01:13:37;;;;;;;13.45;6.80;;;14.00;99.90;;;;;;4995034;28;20540;-50
2022/09/11 01:16:14;;;;;;;9.02;6.20;;;14.00;99.90;;;;;;5000378;28;20042;-48
2022/09/11 01:19:05;;;;;;;12.10;6.05;;;14.00;99.90;;;;;;4989767;28;20033;-52
2022/09/11 01:21:58;;;;;;;6.53;4.82;;;14.10;99.90;;;;;;5002347;28;20116;-45
2022/09/11 01:24:44;;;;;;;7.88;5.10;;;14.10;99.90;;;;;;4992958;28;20022;-50
2022/09/11 01:27:29;;;;;;;9.70;5.03;;;14.10;99.90;;;;;;5001019;28;20058;-50
2022/09/11 01:30:31;;;;;;;6.38;4.55;;;14.10;99.90;;;;;;4992546;28;20038;-51
2022/09/11 01:33:19;;;;;;;12.18;5.35;;;14.00;99.90;;;;;;4991361;28;20022;-48
2022/09/11 01:36:04;;;;;;;8.15;5.85;;;13.90;99.90;;;;;;4993052;28;20045;-53
2022/09/11 01:38:45;;;;;;;9.05;5.57;;;13.70;99.90;;;;;;4996721;28;20116;-45
2022/09/11 01:41:26;;;;;;;11.52;5.70;;;13.60;99.90;;;;;;5005866;28;20040;-48
2022/09/11 01:44:06;;;;;;;8.60;5.25;;;13.60;99.90;;;;;;4991391;28;20022;-52
2022/09/11 01:46:37;;;;;;;11.32;5.75;;;13.60;99.90;;;;;;5001059;28;20041;-45
2022/09/11 01:49:11;;;;;;;9.63;5.85;;;13.60;99.90;;;;;;4990374;28;20511;-47
2022/09/11 01:51:38;;;;;;;8.68;5.97;;;13.60;99.90;;;;;;4997166;28;20084;-52
2022/09/11 01:54:10;;;;;;;10.52;5.95;;;13.50;99.90;;;;;;4993799;28;20539;-48
2022/09/11 01:56:43;;;;;;;10.13;5.78;;;13.50;99.90;;;;;;4993337;28;20041;-46
2022/09/11 01:59:13;;;;;;;7.47;5.78;;;13.60;99.90;;;;;;5000469;28;20052;-57
2022/09/11 02:01:43;;;;;;;10.63;6.00;;;13.60;99.90;;;;;;5007343;28;20345;-48
2022/09/11 02:04:17;;;;;;;9.95;5.90;;;13.60;99.90;;;;;;4993349;28;20027;-48
2022/09/11 02:07:11;;;;;;;8.77;5.57;;;13.60;99.90;;;;;;5005659;28;20065;-53
2022/09/11 02:09:52;;;;;;;9.27;5.93;;;13.60;99.90;;;;;;4997535;28;21135;-50
2022/09/11 02:12:23;;;;;;;8.57;5.88;;;13.60;99.90;;;;;;4993322;28;20050;-50
2022/09/11 02:14:50;;;;;;;9.23;5.43;;;13.60;99.90;;;;;;4999622;28;20034;-47
2022/09/11 02:17:42;;;;;;;8.82;5.20;;;13.60;99.90;;;;;;4996902;28;20031;-44
2022/09/11 02:20:09;;;;;;;6.82;4.30;;;13.60;99.90;;;;;;5000521;28;20025;-49
2022/09/11 02:22:35;;;;;;;7.10;4.25;;;13.50;99.90;;;;;;5005783;28;20026;-46
2022/09/11 02:25:02;;;;;;;6.97;4.00;;;13.60;99.90;;;;;;4995217;28;20072;-50
2022/09/11 02:27:30;;;;;;;9.60;4.38;;;13.50;99.90;;;;;;4992117;28;20435;-50
2022/09/11 02:29:57;;;;;;;7.32;4.10;;;13.50;99.90;;;;;;5006464;28;20026;-50
2022/09/11 02:32:25;;;;;;;9.32;4.30;;;13.40;99.90;;;;;;4998779;28;20034;-46
2022/09/11 02:34:54;;;;;;;6.53;3.75;;;13.50;99.90;;;;;;5006311;28;20072;-46
2022/09/11 02:37:41;;;;;;;7.65;3.80;;;13.40;99.90;;;;;;5009371;28;20041;-46
2022/09/11 02:40:19;;;;;;;9.95;4.43;;;13.40;99.90;;;;;;4993806;28;20053;-47
2022/09/11 02:43:21;;;;;;;9.07;4.88;;;13.40;99.90;;;;;;4998940;28;20018;-52
2022/09/11 02:46:21;;;;;;;7.35;4.28;;;13.40;99.90;;;;;;4998927;28;20030;-44
2022/09/11 02:49:06;;;;;;;;;;;13.40;99.90;;;;;;5008801;28;20733;-44
2022/09/11 02:51:54;;;;;;;8.10;3.90;;;13.30;99.90;;;;;;5000781;28;19914;-49
2022/09/11 02:54:23;;;;;;;6.10;3.58;;;13.20;99.90;;;;;;4996288;28;20026;-49
2022/09/11 02:57:20;;;;;;;8.30;4.35;;;13.20;99.90;;;;;;4994674;28;20509;-46
2022/09/11 03:00:00;;;;;;;6.03;3.38;;;13.10;99.90;;;;;;4997895;28;20042;-47
2022/09/11 03:02:32;;;;;;;7.13;4.10;;;13.00;99.90;;;;;;4998296;28;20033;-47
2022/09/11 03:04:58;;;;;;;6.75;4.35;;;13.10;99.90;;;;;;4995659;28;20025;-45
2022/09/11 03:07:24;;;;;;;7.03;4.38;;;13.00;99.90;;;;;;5000444;28;20038;-44
2022/09/11 03:09:50;;;;;;;6.95;4.63;;;13.00;99.90;;;;;;5001826;28;20524;-49
2022/09/11 03:12:16;;;;;;;6.22;3.90;;;13.00;99.90;;;;;;4994585;28;20022;-44
2022/09/11 03:14:42;;;;;;;9.63;4.05;;;13.00;99.90;;;;;;5000920;28;20101;-44
2022/09/11 03:17:08;;;;;;;9.57;3.80;;;13.00;99.90;;;;;;4995172;28;20113;-44
2022/09/11 03:19:34;;;;;;;9.52;3.58;;;13.00;99.90;;;;;;5001518;28;20160;-45
2022/09/11 03:22:01;;;;;;;5.90;3.95;;;12.90;99.90;;;;;;5005236;28;20034;-52
2022/09/11 03:24:26;;;;;;;5.70;3.53;;;13.00;99.90;;;;;;4992043;28;20366;-47
2022/09/11 03:26:52;;;;;;;9.32;4.68;;;13.00;99.90;;;;;;5006987;28;20036;-51
2022/09/11 03:29:17;;;;;;;5.82;4.05;;;13.00;99.90;;;;;;4994999;28;20049;-50
2022/09/11 03:31:43;;;;;;;8.93;6.10;;;12.90;99.90;;;;;;5007304;28;20018;-46
2022/09/11 03:34:09;;;;;;;15.05;6.90;;;12.90;99.90;;;;;;5010706;28;20026;-50
2022/09/11 03:36:35;;;;;;;11.73;7.43;;;12.90;99.90;;;;;;5007664;28;20038;-44
2022/09/11 03:39:01;;;;;;;8.80;6.18;;;12.90;99.90;;;;;;5005836;28;20175;-50
2022/09/11 03:41:27;;;;;;;7.47;4.82;;;12.90;99.90;;;;;;4999207;28;20132;-50
2022/09/11 03:43:52;;;;;;;7.45;5.35;;;13.00;99.90;;;;;;4996970;28;20026;-51
2022/09/11 03:46:18;;;;;;;7.82;5.05;;;12.90;99.90;;;;;;5002776;28;20038;-52
2022/09/11 03:48:47;;;;;;;7.75;4.60;;;12.90;99.90;;;;;;5002347;28;20033;-46
2022/09/11 03:51:13;;;;;;;7.13;4.70;;;12.90;99.90;;;;;;5007704;28;20061;-44
2022/09/11 03:53:40;;;;;;;6.97;4.75;;;12.90;99.90;;;;;;5007926;28;20026;-45
2022/09/11 03:56:06;;;;;;;8.57;6.13;;;12.80;99.90;;;;;;5002741;28;20030;-49
2022/09/11 03:58:32;;;;;;;8.40;5.45;;;12.80;99.90;;;;;;4999508;28;20025;-50
2022/09/11 04:00:57;;;;;;;7.43;5.78;;;12.80;99.90;;;;;;5006589;28;20058;-47
2022/09/11 04:03:23;;;;;;;7.20;5.00;;;12.80;99.90;;;;;;4997733;28;20491;-53
2022/09/11 04:05:58;;;;;;;6.85;5.38;;;12.80;99.90;;;;;;5011888;28;20381;-45
2022/09/11 04:08:24;;;;;;;7.20;5.80;;;12.80;99.90;;;;;;5005948;28;20031;-48
2022/09/11 04:11:04;;;;;;;8.93;6.22;;;12.80;99.90;;;;;;4998291;28;20042;-47
2022/09/11 04:13:33;;;;;;;7.72;6.18;;;12.70;99.90;;;;;;5002090;28;20046;-45
2022/09/11 04:16:08;;;;;;;8.02;5.97;;;12.60;99.90;;;;;;5011633;28;20424;-47
2022/09/11 04:18:37;;;;;;;8.50;6.00;;;12.70;99.90;;;;;;5005531;28;20034;-50
2022/09/11 04:21:10;;;;;;;7.65;6.07;;;12.60;99.90;;;;;;4991918;28;20437;-46
2022/09/11 04:23:36;;;;;;;7.68;6.07;;;12.60;99.90;;;;;;4995578;28;20041;-44
2022/09/11 04:26:13;;;;;;;15.07;5.93;;;12.60;99.90;;;;;;5000868;28;20026;-48
2022/09/11 04:28:38;;;;;;;7.50;5.95;;;12.60;99.90;;;;;;5004275;28;20034;-58
2022/09/11 04:31:04;;;;;;;9.02;5.70;;;12.60;99.90;;;;;;5011176;28;20043;-43
2022/09/11 04:33:30;;;;;;;10.40;5.50;;;12.50;99.90;;;;;;5008899;28;20400;-46
2022/09/11 04:35:55;;;;;;;6.43;4.72;;;12.50;99.90;;;;;;5011389;28;20065;-48
2022/09/11 04:38:22;;;;;;;8.27;5.28;;;12.50;99.90;;;;;;5009920;28;20032;-43
2022/09/11 04:40:48;;;;;;;9.02;4.93;;;12.50;99.90;;;;;;5009237;28;20071;-46
2022/09/11 04:43:16;;;;;;;8.07;5.50;;;12.50;99.90;;;;;;5011542;28;20026;-46
2022/09/11 04:45:42;;;;;;;7.28;6.15;;;12.50;99.90;;;;;;5011292;28;20017;-49
2022/09/11 04:48:07;;;;;;;9.43;6.95;;;12.50;99.90;;;;;;5010474;28;20044;-46
2022/09/11 04:50:33;;;;;;;8.30;6.60;;;12.50;99.90;;;;;;5009524;28;20041;-49
2022/09/11 04:52:59;;;;;;;8.82;6.90;;;12.50;99.90;;;;;;5011171;28;20026;-44
2022/09/11 04:55:25;;;;;;;7.90;6.55;;;12.50;99.90;;;;;;5010942;28;20026;-54
2022/09/11 04:57:52;;;;;;;10.00;6.85;;;12.50;99.90;;;;;;5008670;28;20046;-42
2022/09/11 05:00:19;;;;;;;7.60;6.32;;;12.50;99.90;;;;;;5004591;28;20014;-46
2022/09/11 05:02:46;;;;;;;7.45;6.20;;;12.50;99.90;;;;;;5005418;28;20022;-56
2022/09/11 05:05:12;;;;;;;8.30;6.18;;;12.60;99.90;;;;;;5001398;28;20025;-48
2022/09/11 05:07:38;;;;;;;7.93;6.57;;;12.60;99.90;;;;;;5011015;28;20073;-52
2022/09/11 05:10:04;;;;;;;7.40;5.75;;;12.50;99.90;;;;;;5010171;28;20053;-52
2022/09/11 05:12:33;;;;;;;7.60;6.32;;;12.60;99.90;;;;;;5010917;28;20025;-51
2022/09/11 05:14:58;;;;;;;7.95;6.30;;;12.60;99.90;;;;;;5009766;28;20034;-46
2022/09/11 05:17:24;;;;;;;8.23;6.22;;;12.50;99.90;;;;;;5010276;28;20125;-45
2022/09/11 05:19:49;;;;;;;7.95;6.60;;;12.60;99.90;;;;;;5010717;28;20022;-49
2022/09/11 05:22:15;;;;;;;7.68;6.30;;;12.60;99.90;;;;;;5005092;28;20121;-50
2022/09/11 05:24:41;;;;;;;9.10;6.43;;;12.60;99.90;;;;;;5006422;28;20029;-54
2022/09/11 05:27:08;;;;;;;7.25;5.97;;;12.60;99.90;;;;;;5010804;28;20536;-47
2022/09/11 05:29:34;;;;;;;8.35;5.78;;;12.50;99.90;;;;;;5010123;28;20022;-51
2022/09/11 05:32:00;;;;;;;7.35;5.80;;;12.50;99.90;;;;;;5009938;28;20099;-54
2022/09/11 05:34:28;;;;;;;6.57;5.45;;;12.40;99.90;;;;;;5013688;28;20029;-51
2022/09/11 05:36:58;;;;;;;9.23;5.90;;;12.40;99.90;;;;;;5013085;28;20073;-46
2022/09/11 05:39:24;;;;;;;8.52;5.97;;;12.40;99.90;;;;;;5014652;28;20030;-43
2022/09/11 05:41:54;;;;;;;11.43;6.03;;;12.40;99.90;;;;;;5014189;28;20033;-47
2022/09/11 05:44:20;;;;;;;6.63;5.55;;;12.40;99.90;;;;;;5013591;28;20469;-49
2022/09/11 05:46:47;;;;;;;6.40;5.40;;;12.40;99.90;;;;;;5013046;28;20064;-44
2022/09/11 05:49:12;;;;;;;10.23;6.07;;;12.50;99.90;;;;;;5013356;28;20508;-44
2022/09/11 05:51:40;;;;;;;11.25;6.35;;;12.50;99.90;;;;;;5014060;28;20045;-44
2022/09/11 05:54:06;;;;;;;9.48;6.03;;;12.60;99.90;;;;;;5013928;28;20117;-46
2022/09/11 05:56:32;;;;;;;8.13;5.35;;;12.70;99.90;;;;;;5010569;28;20180;-50
2022/09/11 05:58:57;;;;;;;6.90;5.05;;;12.70;99.90;;;;;;5011044;28;20080;-46
2022/09/11 06:01:25;;;;;;;9.07;5.32;;;12.80;99.90;;;;;;5003882;28;20037;-48
2022/09/11 06:03:52;;;;;;;10.43;6.05;;;12.80;99.90;;;;;;5006499;28;20022;-52
2022/09/11 06:06:21;;;;;;;9.82;6.88;;;12.80;99.90;;;;;;5004717;28;20101;-44
2022/09/11 06:08:48;;;;;;;13.57;9.27;;;12.90;99.90;;;;;;5002052;28;20034;-49
2022/09/11 06:11:16;;;;;;;13.75;8.85;;;12.90;99.90;;;;;;4996422;28;20030;-53
2022/09/11 06:13:45;;;;;;;11.68;8.20;;;13.00;99.90;;;;;;5003491;28;20038;-50
2022/09/11 06:16:21;;;;;;;16.23;10.13;;;13.10;99.90;;;;;;5000559;28;20068;-48
2022/09/11 06:18:48;;;;;;;12.48;9.77;;;13.20;99.90;;;;;;4994128;28;20322;-46
2022/09/11 06:21:18;;;;;;;15.38;10.55;;;13.30;99.90;;;;;;5008787;28;20473;-47
2022/09/11 06:23:45;;;;;;;10.68;7.70;;;13.50;99.90;;;;;;5012499;28;20061;-49
2022/09/11 06:26:13;;;;;;;15.13;8.20;;;13.60;99.90;;;;;;5009454;28;20118;-47
2022/09/11 06:28:39;;;;;;;12.05;6.97;;;13.70;99.90;;;;;;5010299;28;20026;-46
2022/09/11 06:31:07;;;;;;;12.05;8.10;;;13.80;99.90;;;;;;5006188;28;20098;-46
2022/09/11 06:33:38;;;;;;;11.00;7.05;;;14.00;99.90;;;;;;5004406;28;20180;-47
2022/09/11 06:36:06;;;;;;;12.18;7.50;;;14.00;99.90;;;;;;5009591;28;20033;-45
2022/09/11 06:38:32;;;;;;;7.53;6.20;;;14.00;99.90;;;;;;5005725;28;20022;-44
2022/09/11 06:41:02;;;;;;;9.85;6.70;;;14.00;99.90;;;;;;5007390;28;20088;-48
2022/09/11 06:43:28;;;;;;;12.15;7.47;;;14.10;99.90;;;;;;5006043;28;20022;-46
2022/09/11 06:45:53;;;;;;;11.55;8.07;;;14.10;99.90;;;;;;5003639;28;20033;-43
2022/09/11 06:48:19;;;;;;;11.43;8.55;;;14.10;99.90;;;;;;5005809;28;20584;-48
2022/09/11 06:50:45;;;;;;;14.95;9.25;;;14.10;99.90;;;;;;5009612;28;20022;-46
2022/09/11 06:53:11;;;;;;;12.50;9.10;;;14.20;99.90;;;;;;5009492;28;20172;-48
2022/09/11 06:55:40;;;;;;;10.32;8.55;;;14.30;99.90;;;;;;5006129;28;20030;-48
2022/09/11 06:58:07;;;;;;;13.33;8.87;;;14.50;99.90;;;;;;5006643;28;20085;-53
2022/09/11 07:00:35;;;;;;;12.18;8.20;;;14.70;99.90;;;;;;5004124;28;20358;-45
2022/09/11 07:03:01;;;;;;;12.00;8.48;;;14.80;99.90;;;;;;5007976;28;20590;-52
2022/09/11 07:05:27;;;;;;;11.45;7.85;;;15.00;99.90;;;;;;5004399;28;20129;-47
2022/09/11 07:07:54;;;;;;;9.85;7.65;;;15.30;99.90;;;;;;5003957;28;20076;-48
2022/09/11 07:10:21;;;;;;;9.00;7.03;;;15.90;99.90;;;;;;5007975;28;20042;-45
2022/09/11 07:12:47;;;;;;;9.88;6.90;;;16.60;99.90;;;;;;5009350;28;20907;-45
2022/09/11 07:15:13;;;;;;;8.75;6.45;;;17.50;99.90;;;;;;5006995;28;20026;-48
2022/09/11 07:17:39;;;;;;;7.78;5.55;;;18.40;99.90;;;;;;5007876;28;20116;-47
2022/09/11 07:20:06;;;;;;;7.03;5.43;;;19.30;99.90;;;;;;4998146;28;20485;-44
2022/09/11 07:22:33;;;;;;;7.80;5.80;;;20.00;99.90;;;;;;5005879;28;20105;-44
2022/09/11 07:24:59;;;;;;;7.45;5.40;;;20.60;99.90;;;;;;5004861;28;20031;-44
2022/09/11 07:27:26;;;;;;;6.47;5.22;;;21.40;99.90;;;;;;5006988;28;20045;-51
2022/09/11 07:29:51;;;;;;;6.97;4.43;;;21.90;99.90;;;;;;5005401;28;20037;-46
2022/09/11 07:32:17;;;;;;;6.07;4.85;;;22.30;99.90;;;;;;5004741;28;20523;-49
2022/09/11 07:34:44;;;;;;;7.78;4.88;;;22.50;99.90;;;;;;5007492;28;20021;-45
2022/09/11 07:37:09;;;;;;;6.20;4.30;;;22.80;99.90;;;;;;5001083;28;20030;-51
2022/09/11 07:39:35;;;;;;;6.30;5.03;;;22.80;99.90;;;;;;5009458;28;20385;-47
2022/09/11 07:42:00;;;;;;;6.32;5.05;;;23.20;99.90;;;;;;5003342;28;20097;-45
2022/09/11 07:44:26;;;;;;;9.98;5.07;;;23.30;99.90;;;;;;5010220;28;20090;-53
2022/09/11 07:46:52;;;;;;;6.13;4.68;;;23.40;99.90;;;;;;5007897;28;20037;-48
2022/09/11 07:49:17;;;;;;;7.32;5.10;;;23.80;99.90;;;;;;5002428;28;20034;-47
2022/09/11 07:51:43;;;;;;;6.22;5.05;;;24.40;99.90;;;;;;4998713;28;20113;-44
2022/09/11 07:54:09;;;;;;;6.78;4.95;;;24.70;99.90;;;;;;4997212;28;20105;-46
2022/09/11 07:56:35;;;;;;;7.20;4.78;;;25.10;99.90;;;;;;5011390;28;20461;-48
2022/09/11 07:59:01;;;;;;;7.60;4.65;;;25.40;99.90;;;;;;5008950;28;20064;-49
2022/09/11 08:01:31;;;;;;;6.30;4.15;;;25.80;99.90;;;;;;5003064;28;20026;-54
2022/09/11 08:04:09;;;;;;;7.18;5.20;;;26.00;99.90;;;;;;5004001;28;20116;-44
2022/09/11 08:06:36;;;;;;;7.25;4.97;;;25.80;99.90;;;;;;5007773;28;20080;-45
2022/09/11 08:09:07;;;;;;;6.38;4.85;;;25.80;99.90;;;;;;5003849;28;20097;-51
2022/09/11 08:11:37;;;;;;;6.13;4.53;;;25.90;99.90;;;;;;5004665;28;20049;-45
2022/09/11 08:14:03;;;;;;;8.07;5.50;;;26.10;99.90;;;;;;4988966;28;20056;-54
2022/09/11 08:16:29;;;;;;;9.30;5.65;;;26.10;99.50;;;;;;5001205;28;20034;-47
2022/09/11 08:18:56;;;;;;;6.93;5.43;;;25.90;99.80;;;;;;5002161;28;20029;-45
2022/09/11 08:21:23;;;;;;;6.45;4.65;;;25.60;99.90;;;;;;5005587;28;20037;-45
2022/09/11 08:23:49;;;;;;;10.75;5.57;;;25.80;99.90;;;;;;5006107;28;20117;-50
2022/09/11 08:26:16;;;;;;;8.13;5.60;;;26.00;99.60;;;;;;4997898;28;20026;-52
2022/09/11 08:28:42;;;;;;;7.95;6.55;;;26.30;99.90;;;;;;5004236;28;20033;-46
2022/09/11 08:31:09;;;;;;;9.05;6.53;;;26.60;99.90;;;;;;5004861;28;20026;-47
2022/09/11 08:33:35;;;;;;;9.65;6.30;;;26.60;99.20;;;;;;5003584;28;20033;-45
2022/09/11 08:36:04;;;;;;;9.25;5.70;;;26.80;99.30;;;;;;5007437;28;20116;-51
2022/09/11 08:38:32;;;;;;;9.25;5.82;;;26.80;98.70;;;;;;4993201;28;20030;-47
2022/09/11 08:41:07;;;;;;;8.82;5.80;;;27.00;98.90;;;;;;4992935;28;20035;-48
2022/09/11 08:43:37;;;;;;;9.00;6.88;;;26.80;99.50;;;;;;4991530;28;20081;-45
2022/09/11 08:46:08;;;;;;;9.80;6.90;;;26.90;98.80;;;;;;4993637;28;20026;-47
2022/09/11 08:49:03;;;;;;;10.18;7.03;;;27.40;99.40;;;;;;4991643;28;20030;-47
2022/09/11 08:51:30;;;;;;;10.45;5.85;;;28.20;98.30;;;;;;4991503;28;20038;-47
2022/09/11 08:53:57;;;;;;;9.23;6.20;;;28.80;96.60;;;;;;4991362;28;20049;-48
2022/09/11 08:56:27;;;;;;;8.73;6.47;;;29.00;95.20;;;;;;5005769;28;20484;-44
2022/09/11 08:59:02;;;;;;;9.25;6.22;;;29.50;94.60;;;;;;4991885;28;20093;-47
2022/09/11 09:01:55;;;;;;;8.50;5.80;;;29.30;94.50;;;;;;4997620;28;20433;-48
2022/09/11 09:04:38;;;;;;;10.40;6.75;;;28.50;94.40;;;;;;5010555;28;20025;-51
2022/09/11 09:07:22;;;;;;;8.88;6.10;;;27.80;95.20;;;;;;5011199;28;20030;-50
2022/09/11 09:10:14;;;;;;;7.10;5.32;;;27.40;96.60;;;;;;5012703;28;20539;-55
2022/09/11 09:12:55;;;;;;;8.40;5.95;;;26.80;96.70;;;;;;5009077;28;20053;-49
2022/09/11 09:15:33;;;;;;;8.43;5.68;;;27.10;98.90;;;;;;4996612;28;20559;-51
2022/09/11 09:18:05;;;;;;;7.88;5.55;;;27.30;97.50;;;;;;4993711;28;20058;-49
2022/09/11 09:20:43;;;;;;;7.80;5.40;;;27.80;96.30;;;;;;5009923;28;20022;-53
2022/09/11 09:23:24;;;;;;;6.72;5.30;;;27.90;95.10;;;;;;5008641;28;20018;-50
2022/09/11 09:25:51;;;;;;;9.43;4.68;;;28.10;95.20;;;;;;5010799;28;20061;-52
2022/09/11 09:28:28;;;;;;;7.63;4.68;;;28.10;95.30;;;;;;5009581;28;20489;-44
2022/09/11 09:30:58;;;;;;;7.57;4.63;;;28.40;94.30;;;;;;5011531;28;20044;-51
2022/09/11 09:33:37;;;;;;;7.80;4.90;;;28.50;95.30;;;;;;5012135;28;20040;-48
2022/09/11 09:36:23;;;;;;;;;;;27.70;93.80;;;;;;5011505;28;20397;-45
2022/09/11 09:38:51;;;;;;;8.88;4.88;;;27.10;95.20;;;;;;5010456;28;19988;-52
2022/09/11 09:41:48;;;;;;;8.35;5.28;;;27.30;94.50;;;;;;5011087;28;20044;-47
2022/09/11 09:44:26;;;;;;;8.13;4.95;;;27.20;96.30;;;;;;5011680;28;20024;-50
2022/09/11 09:46:54;;;;;;;6.88;4.50;;;27.90;95.60;;;;;;5012294;28;20030;-48
2022/09/11 09:49:26;;;;;;;7.75;5.20;;;28.00;94.20;;;;;;5013326;28;20056;-44
2022/09/11 09:52:02;;;;;;;10.55;5.25;;;28.00;92.70;;;;;;5010981;28;20038;-48
2022/09/11 09:54:32;;;;;;;8.60;5.78;;;28.20;94.30;;;;;;4994640;28;20073;-50
2022/09/11 09:57:01;;;;;;;8.95;5.75;;;28.20;95.30;;;;;;4994840;28;20038;-50
2022/09/11 10:00:00;;;;;;;5.78;4.22;;;28.20;93.70;;;;;;4995694;28;20018;-47
2022/09/11 10:02:40;;;;;;;8.77;4.75;;;27.20;93.50;;;;;;4991926;28;20042;-51
2022/09/11 10:05:15;;;;;;;7.03;4.47;;;27.80;94.90;;;;;;5013954;28;20040;-46
2022/09/11 10:07:55;;;;;;;7.55;4.38;;;28.30;93.10;;;;;;5013948;28;20096;-54
2022/09/11 10:10:35;;;;;;;9.20;4.50;;;28.30;92.90;;;;;;5013634;28;20513;-45
2022/09/11 10:13:23;;;;;;;13.88;5.80;;;27.60;93.00;;;;;;5013777;28;20509;-46
2022/09/11 10:15:52;;;;;;;8.80;5.75;;;26.50;95.00;;;;;;5013880;28;20060;-49
2022/09/11 10:18:41;;;;;;;11.55;5.75;;;25.50;96.90;;;;;;5013207;28;20032;-47
2022/09/11 10:21:12;;;;;;;9.45;5.88;;;24.60;98.60;;;;;;5011995;28;20366;-45
2022/09/11 10:24:01;;;;;;;13.20;5.68;;;24.00;99.90;;;;;;4993984;28;20061;-47
2022/09/11 10:26:49;;;;;;;7.30;4.60;;;24.20;99.90;;;;;;4994044;28;20022;-47
2022/09/11 10:29:23;;;;;;;8.23;4.20;;;25.80;99.90;;;;;;4994225;28;20106;-49
2022/09/11 10:31:54;;;;;;;7.50;4.30;;;27.90;97.10;;;;;;5005211;28;20486;-50
2022/09/11 10:34:24;;;;;;;7.78;4.43;;;29.60;96.10;;;;;;4993766;28;20034;-48
2022/09/11 10:36:59;;;;;;;7.68;3.35;;;30.50;91.60;;;;;;4993081;28;20121;-49
2022/09/11 10:39:27;;;;;;;7.20;3.53;;;30.30;91.10;;;;;;4993705;28;20040;-47
2022/09/11 10:41:58;;;;;;;5.75;2.88;;;29.30;90.70;;;;;;4994831;28;20043;-51
2022/09/11 10:44:25;;;;;;;4.43;3.00;;;28.50;90.80;;;;;;4993684;28;20565;-51
2022/09/11 10:47:05;;;;;;;4.38;3.13;;;27.50;92.30;;;;;;4992690;28;20040;-50
2022/09/11 10:49:32;;;;;;;5.05;2.70;;;26.40;93.90;;;;;;4991763;28;20093;-50
2022/09/11 10:52:16;;;;;;;6.97;3.35;;;25.60;94.80;;;;;;4992607;28;20081;-46
2022/09/11 10:55:06;;;;;;;4.40;3.17;;;25.40;97.20;;;;;;4991614;28;20117;-46
2022/09/11 10:57:51;;;;;;;6.22;3.20;;;25.60;94.80;;;;;;4991102;28;20057;-53
2022/09/11 11:00:20;;;;;;;7.57;3.35;;;25.40;94.20;;;;;;5002605;28;20052;-44
2022/09/11 11:02:47;;;;;;;;;;;25.60;95.30;;;;;;5012409;28;20030;-44
2022/09/11 11:05:28;;;;;;;5.57;3.53;;;26.40;96.90;;;;;;5013027;28;20008;-51
2022/09/11 11:08:21;;;;;;;7.57;3.92;;;26.80;95.50;;;;;;5012650;28;20045;-48
2022/09/11 11:11:11;;;;;;;4.85;3.28;;;27.10;94.10;;;;;;5012526;28;20561;-45
2022/09/11 11:14:13;;;;;;;7.50;3.60;;;27.20;94.60;;;;;;5009437;28;20026;-50
2022/09/11 11:16:44;;;;;;;6.53;3.28;;;27.70;94.50;;;;;;4999221;28;20576;-50
2022/09/11 11:19:23;;;;;;;3.78;2.55;;;27.70;93.30;;;;;;5012911;28;20026;-53
2022/09/11 11:21:58;;;;;;;6.28;3.50;;;27.20;94.10;;;;;;5012308;28;20396;-44
2022/09/11 11:24:42;;;;;;;6.68;2.97;;;27.00;93.20;;;;;;5012409;28;20480;-44
2022/09/11 11:27:35;;;;;;;5.70;3.03;;;26.00;94.60;;;;;;5012546;28;20045;-45
2022/09/11 11:30:14;;;;;;;5.53;2.90;;;25.10;95.80;;;;;;5012387;28;20030;-54
2022/09/11 11:33:01;;;;;;;4.63;2.78;;;24.50;97.50;;;;;;5012191;28;20103;-45
2022/09/11 11:36:07;;;;;;;6.68;3.47;;;24.00;97.60;;;;;;4999764;28;20503;-45
2022/09/11 11:38:48;;;;;;;6.65;2.85;;;23.50;98.80;;;;;;4975801;28;20073;-45
2022/09/11 11:41:21;;;;;;;8.27;3.50;;;23.20;99.90;;;;;;5011077;28;20087;-45
2022/09/11 11:43:50;;;;;;;6.13;2.63;;;23.10;99.90;;;;;;5007831;28;20041;-48
2022/09/11 11:46:39;;;;;;;4.93;2.50;;;22.90;99.70;;;;;;5010261;28;20049;-51
2022/09/11 11:49:12;;;;;;;4.35;2.40;;;22.70;99.90;;;;;;5008010;28;20038;-45
2022/09/11 11:51:47;;;;;;;4.82;2.72;;;22.60;99.90;;;;;;5007749;28;20044;-50
2022/09/11 11:54:27;;;;;;;5.50;2.72;;;22.80;99.90;;;;;;5008926;28;20607;-45
2022/09/11 11:56:58;;;;;;;4.55;2.40;;;23.00;99.90;;;;;;5006634;28;20047;-44
2022/09/11 11:59:33;;;;;;;4.88;2.38;;;24.20;99.90;;;;;;5008135;28;20184;-51
2022/09/11 12:02:24;;;;;;;6.35;2.80;;;24.80;98.60;;;;;;5001454;28;20026;-44
2022/09/11 12:04:53;;;;;;;7.30;2.95;;;24.80;97.80;;;;;;5006009;28;20033;-46
2022/09/11 12:07:21;;;;;;;5.43;2.20;;;25.40;98.90;;;;;;5003113;28;20033;-50
2022/09/11 12:09:49;;;;;;;5.03;2.00;;;26.30;97.50;;;;;;5008326;28;20049;-45
2022/09/11 12:12:16;;;;;;;3.65;2.10;;;26.80;95.90;;;;;;5004492;28;20167;-45
2022/09/11 12:15:05;;;;;;;4.20;2.33;;;26.50;95.40;;;;;;5002617;28;20091;-47
2022/09/11 12:17:33;;;;;;;4.72;2.30;;;26.00;95.10;;;;;;5003493;28;20108;-49
2022/09/11 12:20:11;;;;;;;3.80;2.23;;;25.60;97.90;;;;;;5005042;28;20018;-53
2022/09/11 12:22:47;;;;;;;5.25;2.20;;;25.50;96.70;;;;;;4986938;28;20279;-51
2022/09/11 12:25:19;;;;;;;6.65;2.40;;;25.60;96.50;;;;;;4999576;28;20113;-46
2022/09/11 12:27:45;;;;;;;3.72;2.03;;;25.10;96.00;;;;;;5005082;28;20033;-48
2022/09/11 12:30:16;;;;;;;5.00;2.08;;;25.60;97.00;;;;;;4996707;28;20034;-55
2022/09/11 12:32:49;;;;;;;6.93;2.20;;;26.00;95.90;;;;;;5006159;28;20036;-57
2022/09/11 12:35:42;;;;;;;5.40;1.98;;;26.40;95.50;;;;;;4992283;28;20026;-45
2022/09/11 12:38:07;;;;;;;4.50;2.05;;;26.60;94.80;;;;;;5005711;28;20354;-53
2022/09/11 12:40:46;;;;;;;6.05;2.30;;;26.60;94.40;;;;;;5008602;28;20065;-47
2022/09/11 12:43:19;;;;;;;5.43;2.05;;;26.30;94.50;;;;;;5007044;28;20038;-44
2022/09/11 12:45:47;;;;;;;4.78;2.10;;;26.10;94.40;;;;;;4993460;28;20068;-45
2022/09/11 12:48:21;;;;;;;3.70;1.95;;;25.80;94.80;;;;;;5003709;28;20065;-45
2022/09/11 12:50:55;;;;;;;6.03;2.20;;;25.50;95.30;;;;;;4999702;28;20400;-45
2022/09/11 12:53:34;;;;;;;4.63;2.10;;;25.60;95.80;;;;;;5007433;28;20022;-47
2022/09/11 12:56:05;;;;;;;2.90;1.90;;;25.60;94.70;;;;;;5009642;28;20026;-43
2022/09/11 12:58:40;;;;;;;4.35;1.90;;;25.60;96.10;;;;;;4996279;28;20389;-49
2022/09/11 13:01:09;;;;;;;4.43;2.20;;;25.80;96.30;;;;;;4985569;28;20396;-44
2022/09/11 13:03:37;;;;;;;5.43;2.30;;;26.00;96.00;;;;;;4984396;28;20122;-47
2022/09/11 13:06:09;;;;;;;6.35;2.13;;;26.10;95.20;;;;;;4998388;28;20482;-51
2022/09/11 13:08:45;;;;;;;4.65;1.98;;;26.20;95.70;;;;;;4990312;28;20050;-47
2022/09/11 13:11:37;;;;;;;5.93;2.10;;;26.40;94.90;;;;;;4993573;28;20026;-44